Time;durP1;ratioP1;P1;durP2;ratioP2;P2;SDS_P1;SDS_P2;PMS_P1;PMS_P2;Temp;Humidity;BMP_temperature;BMP_pressure;BME280_temperature;BME280_humidity;BME280_pressure;Samples;Min_cycle;Max_cycle;Signal;HPM_P1;HPM_P2
2022/08/20 00:00:54;;;;;;;2.67;1.92;;;;;;;;;;5049632;28;20037;-86
2022/08/20 00:03:26;;;;;;;7.43;2.42;;;;;;;;;;5046763;28;20025;-86
2022/08/20 00:05:58;;;;;;;4.27;2.23;;;;;;;;;;5051540;28;20033;-87
2022/08/20 00:08:24;;;;;;;5.60;2.28;;;;;;;;;;5051444;28;20504;-87
2022/08/20 00:10:50;;;;;;;7.20;2.60;;;;;;;;;;5052940;28;20048;-86
2022/08/20 00:13:22;;;;;;;6.10;2.63;;;;;;;;;;5049889;28;20379;-86
2022/08/20 00:15:51;;;;;;;6.25;2.03;;;;;;;;;;5047100;28;20037;-86
2022/08/20 00:18:16;;;;;;;4.35;2.22;;;;;;;;;;5047806;28;20126;-87
2022/08/20 00:20:46;;;;;;;5.80;2.47;;;;;;;;;;5049332;28;20083;-86
2022/08/20 00:23:12;;;;;;;5.90;2.22;;;;;;;;;;5050803;28;20079;-87
2022/08/20 00:25:39;;;;;;;4.28;2.10;;;;;;;;;;5063366;28;20012;-87
2022/08/20 00:28:05;;;;;;;5.05;2.92;;;;;;;;;;5055244;28;20127;-86
2022/08/20 00:30:34;;;;;;;8.60;2.30;;;;;;;;;;5051542;28;20437;-86
2022/08/20 00:33:10;;;;;;;10.40;2.42;;;;;;;;;;5048681;28;20025;-86
2022/08/20 00:35:41;;;;;;;6.10;2.30;;;;;;;;;;5052743;28;20047;-86
2022/08/20 00:38:07;;;;;;;6.50;1.90;;;;;;;;;;5048881;28;20032;-86
2022/08/20 00:40:39;;;;;;;7.15;2.42;;;;;;;;;;5049910;28;20071;-87
2022/08/20 00:43:22;;;;;;;5.57;2.67;;;;;;;;;;5030950;28;20836;-86
2022/08/20 00:45:49;;;;;;;6.80;3.00;;;;;;;;;;5066731;28;20033;-86
2022/08/20 00:48:15;;;;;;;5.18;2.45;;;;;;;;;;5034758;28;20029;-87
2022/08/20 00:50:40;;;;;;;9.15;3.13;;;;;;;;;;5047416;28;20037;-86
2022/08/20 00:53:07;;;;;;;7.72;2.83;;;;;;;;;;5050533;28;20800;-86
2022/08/20 00:55:34;;;;;;;6.05;2.50;;;;;;;;;;5050187;28;20029;-86
2022/08/20 00:58:07;;;;;;;8.27;2.78;;;;;;;;;;5053799;28;20072;-86
2022/08/20 01:00:37;;;;;;;11.07;2.90;;;;;;;;;;5045993;28;20045;-86
2022/08/20 01:03:08;;;;;;;13.82;3.42;;;;;;;;;;5058551;28;20041;-86
2022/08/20 01:05:37;;;;;;;7.10;3.20;;;;;;;;;;5046659;28;20045;-86
2022/08/20 01:08:03;;;;;;;7.82;3.30;;;;;;;;;;5065026;28;20098;-86
2022/08/20 01:10:39;;;;;;;5.57;2.72;;;;;;;;;;5037596;28;20033;-86
2022/08/20 01:13:11;;;;;;;7.20;3.03;;;;;;;;;;5042198;28;20083;-87
2022/08/20 01:15:42;;;;;;;8.93;3.10;;;;;;;;;;5044484;28;20033;-86
2022/08/20 01:18:16;;;;;;;5.55;3.28;;;;;;;;;;5047880;28;20033;-87
2022/08/20 01:20:48;;;;;;;10.77;2.65;;;;;;;;;;5042035;28;20025;-87
2022/08/20 01:23:33;;;;;;;12.77;3.20;;;;;;;;;;5043208;28;20094;-86
2022/08/20 01:26:08;;;;;;;8.38;2.20;;;;;;;;;;5048453;28;20040;-86
2022/08/20 01:28:45;;;;;;;10.02;3.17;;;;;;;;;;5049362;28;20020;-86
2022/08/20 01:31:18;;;;;;;10.07;2.60;;;;;;;;;;5033646;28;20490;-86
2022/08/20 01:33:44;;;;;;;10.33;2.77;;;;;;;;;;5048546;28;20025;-86
2022/08/20 01:36:14;;;;;;;6.90;2.78;;;;;;;;;;5052336;28;20036;-85
2022/08/20 01:38:40;;;;;;;8.23;2.85;;;;;;;;;;5050232;28;20150;-85
2022/08/20 01:41:38;;;;;;;10.50;2.60;;;;;;;;;;5053467;28;20037;-85
2022/08/20 01:44:04;;;;;;;7.88;2.65;;;;;;;;;;5025448;28;20028;-86
2022/08/20 01:46:35;;;;;;;5.80;2.60;;;;;;;;;;5044216;28;20025;-85
2022/08/20 01:49:18;;;;;;;7.25;2.50;;;;;;;;;;5046454;28;20037;-86
2022/08/20 01:51:43;;;;;;;6.63;2.92;;;;;;;;;;5049622;28;20474;-86
2022/08/20 01:54:09;;;;;;;6.50;2.65;;;;;;;;;;5051218;28;20064;-86
2022/08/20 01:56:48;;;;;;;10.07;3.03;;;;;;;;;;5045872;28;20039;-86
2022/08/20 01:59:14;;;;;;;8.10;2.85;;;;;;;;;;5048126;28;20029;-86
2022/08/20 02:01:42;;;;;;;8.52;3.08;;;;;;;;;;5043112;28;20036;-86
2022/08/20 02:04:25;;;;;;;12.05;3.35;;;;;;;;;;5049873;28;20021;-86
2022/08/20 02:06:54;;;;;;;10.55;3.08;;;;;;;;;;5043054;28;20026;-86
2022/08/20 02:09:23;;;;;;;4.97;3.00;;;;;;;;;;5044166;28;20033;-85
2022/08/20 02:11:49;;;;;;;8.93;2.63;;;;;;;;;;5032692;28;20037;-86
2022/08/20 02:14:15;;;;;;;12.13;2.65;;;;;;;;;;5047481;28;20029;-86
2022/08/20 02:16:45;;;;;;;9.13;3.03;;;;;;;;;;5040542;28;20049;-86
2022/08/20 02:19:19;;;;;;;8.43;2.90;;;;;;;;;;5049029;28;20478;-85
2022/08/20 02:21:50;;;;;;;7.82;2.75;;;;;;;;;;5047908;28;20029;-86
2022/08/20 02:24:19;;;;;;;17.90;3.33;;;;;;;;;;5048661;28;20025;-87
2022/08/20 02:26:45;;;;;;;6.88;2.33;;;;;;;;;;5037537;28;20036;-86
2022/08/20 02:29:14;;;;;;;8.68;3.08;;;;;;;;;;5041692;28;20033;-86
2022/08/20 02:31:43;;;;;;;6.95;2.72;;;;;;;;;;5049421;28;20459;-85
2022/08/20 02:34:10;;;;;;;7.05;2.83;;;;;;;;;;5048728;28;20546;-86
2022/08/20 02:36:37;;;;;;;6.28;2.75;;;;;;;;;;5031197;28;20458;-86
2022/08/20 02:39:06;;;;;;;7.65;2.65;;;;;;;;;;5028187;28;20045;-85
2022/08/20 02:41:34;;;;;;;6.50;2.60;;;;;;;;;;5029103;28;20049;-85
2022/08/20 02:44:00;;;;;;;9.70;3.50;;;;;;;;;;5039712;28;20168;-86
2022/08/20 02:46:28;;;;;;;8.60;3.00;;;;;;;;;;5046552;28;20048;-85
2022/08/20 02:49:00;;;;;;;13.35;2.97;;;;;;;;;;5047227;28;20075;-85
2022/08/20 02:51:26;;;;;;;11.40;2.67;;;;;;;;;;5053616;28;20025;-86
2022/08/20 02:53:52;;;;;;;6.85;2.95;;;;;;;;;;5052591;28;20038;-85
2022/08/20 02:56:20;;;;;;;11.93;3.17;;;;;;;;;;5043436;28;20033;-86
2022/08/20 02:58:46;;;;;;;10.25;3.28;;;;;;;;;;5044335;28;20089;-86
2022/08/20 03:01:16;;;;;;;8.63;2.95;;;;;;;;;;5045537;28;20104;-85
2022/08/20 03:03:42;;;;;;;8.68;3.15;;;;;;;;;;5044867;28;20041;-86
2022/08/20 03:06:10;;;;;;;12.00;3.55;;;;;;;;;;5059998;28;20041;-86
2022/08/20 03:08:36;;;;;;;7.40;3.00;;;;;;;;;;5047280;28;20044;-85
2022/08/20 03:11:02;;;;;;;9.18;3.17;;;;;;;;;;5045348;28;20083;-85
2022/08/20 03:13:27;;;;;;;11.27;3.40;;;;;;;;;;5047256;28;20037;-86
2022/08/20 03:15:55;;;;;;;9.77;3.20;;;;;;;;;;5046536;28;20124;-85
2022/08/20 03:18:24;;;;;;;6.57;3.42;;;;;;;;;;5046214;28;20049;-85
2022/08/20 03:20:50;;;;;;;6.97;3.00;;;;;;;;;;5054389;28;20037;-87
2022/08/20 03:23:19;;;;;;;8.93;3.00;;;;;;;;;;5041687;28;20036;-85
2022/08/20 03:25:46;;;;;;;10.77;3.25;;;;;;;;;;5063762;28;20021;-85
2022/08/20 03:28:14;;;;;;;8.07;2.58;;;;;;;;;;5047306;28;20028;-86
2022/08/20 03:30:42;;;;;;;11.85;3.22;;;;;;;;;;5044360;28;20068;-85
2022/08/20 03:33:09;;;;;;;7.60;3.05;;;;;;;;;;5044021;28;20040;-85
2022/08/20 03:35:35;;;;;;;6.75;2.90;;;;;;;;;;5056985;28;20036;-85
2022/08/20 03:38:04;;;;;;;6.55;3.10;;;;;;;;;;5068022;28;20040;-85
2022/08/20 03:40:32;;;;;;;8.73;3.58;;;;;;;;;;5052116;28;20079;-85
2022/08/20 03:43:00;;;;;;;11.55;3.55;;;;;;;;;;5046948;28;20041;-85
2022/08/20 03:45:27;;;;;;;8.50;3.10;;;;;;;;;;5046670;28;20112;-85
2022/08/20 03:47:53;;;;;;;9.05;3.35;;;;;;;;;;5039545;28;20036;-85
2022/08/20 03:50:23;;;;;;;9.50;3.17;;;;;;;;;;5039934;28;20461;-85
2022/08/20 03:52:53;;;;;;;7.50;3.00;;;;;;;;;;5047668;28;20035;-86
2022/08/20 03:55:22;;;;;;;10.77;3.50;;;;;;;;;;5047609;28;20589;-85
2022/08/20 03:57:54;;;;;;;6.68;3.00;;;;;;;;;;5041887;28;20135;-86
2022/08/20 04:00:35;;;;;;;9.82;3.10;;;;;;;;;;5041104;28;20510;-86
2022/08/20 04:03:01;;;;;;;11.93;3.25;;;;;;;;;;5039274;28;20041;-86
2022/08/20 04:05:29;;;;;;;9.70;3.35;;;;;;;;;;5044989;28;20033;-86
2022/08/20 04:07:58;;;;;;;11.32;3.40;;;;;;;;;;5047064;28;20029;-86
2022/08/20 04:10:24;;;;;;;9.07;3.45;;;;;;;;;;5032277;28;20422;-86
2022/08/20 04:12:50;;;;;;;13.55;3.60;;;;;;;;;;5031117;28;20522;-86
2022/08/20 04:15:16;;;;;;;7.47;3.08;;;;;;;;;;5027690;28;20038;-86
2022/08/20 04:17:46;;;;;;;11.57;3.50;;;;;;;;;;5043523;28;20042;-85
2022/08/20 04:20:17;;;;;;;8.48;3.67;;;;;;;;;;5037014;28;20058;-86
2022/08/20 04:22:45;;;;;;;11.63;3.00;;;;;;;;;;5045036;28;20062;-86
2022/08/20 04:25:11;;;;;;;8.25;2.90;;;;;;;;;;5040094;28;20031;-86
2022/08/20 04:27:40;;;;;;;7.10;3.13;;;;;;;;;;5046644;28;20072;-86
2022/08/20 04:30:09;;;;;;;9.55;3.58;;;;;;;;;;5043577;28;20128;-86
2022/08/20 04:32:42;;;;;;;11.85;3.17;;;;;;;;;;5062433;28;20043;-86
2022/08/20 04:35:13;;;;;;;13.70;2.92;;;;;;;;;;5053546;28;20114;-86
2022/08/20 04:37:39;;;;;;;9.35;3.33;;;;;;;;;;5047027;28;20028;-86
2022/08/20 04:42:52;;;;;;;12.30;3.80;;;;;;;;;;5048312;28;20043;-85
2022/08/20 04:45:17;;;;;;;10.48;3.30;;;;;;;;;;5050269;28;20041;-85
2022/08/20 04:47:45;;;;;;;7.20;3.35;;;;;;;;;;5057960;28;20040;-85
2022/08/20 04:50:17;;;;;;;7.47;2.97;;;;;;;;;;5050022;28;20037;-85
2022/08/20 04:52:42;;;;;;;11.43;3.35;;;;;;;;;;5066156;28;20033;-84
2022/08/20 04:55:10;;;;;;;7.57;3.20;;;;;;;;;;5042961;28;20029;-85
2022/08/20 04:57:37;;;;;;;9.68;2.95;;;;;;;;;;5048109;28;20053;-85
2022/08/20 05:00:09;;;;;;;11.40;3.42;;;;;;;;;;5040467;28;20136;-86
2022/08/20 05:02:37;;;;;;;10.43;2.78;;;;;;;;;;5040903;28;20033;-86
2022/08/20 05:05:06;;;;;;;6.60;2.85;;;;;;;;;;5050422;28;20573;-85
2022/08/20 05:07:37;;;;;;;11.82;3.35;;;;;;;;;;5049914;28;20052;-85
2022/08/20 05:10:04;;;;;;;8.82;3.03;;;;;;;;;;5038928;28;20624;-85
2022/08/20 05:12:32;;;;;;;8.40;2.80;;;;;;;;;;5046305;28;20036;-86
2022/08/20 05:15:03;;;;;;;7.07;2.85;;;;;;;;;;5049845;28;20795;-85
2022/08/20 05:17:38;;;;;;;11.80;2.90;;;;;;;;;;5050559;28;20068;-86
2022/08/20 05:20:04;;;;;;;10.95;3.00;;;;;;;;;;5049039;28;20041;-85
2022/08/20 05:22:32;;;;;;;11.88;3.20;;;;;;;;;;5049921;28;20036;-85
2022/08/20 05:24:58;;;;;;;10.13;2.88;;;;;;;;;;5045934;28;20075;-86
2022/08/20 05:27:25;;;;;;;9.95;3.45;;;;;;;;;;5053921;28;20491;-86
2022/08/20 05:29:53;;;;;;;11.90;3.33;;;;;;;;;;5046432;28;20040;-85
2022/08/20 05:32:19;;;;;;;7.65;3.05;;;;;;;;;;5049451;28;20033;-86
2022/08/20 05:34:47;;;;;;;9.85;3.17;;;;;;;;;;5065003;28;20028;-86
2022/08/20 05:37:16;;;;;;;9.48;3.92;;;;;;;;;;5049649;28;20469;-86
2022/08/20 05:39:45;;;;;;;12.60;3.22;;;;;;;;;;5050526;28;20414;-86
2022/08/20 05:42:11;;;;;;;7.88;3.15;;;;;;;;;;5033223;28;20033;-86
2022/08/20 05:44:37;;;;;;;11.95;3.20;;;;;;;;;;5047672;28;20036;-86
2022/08/20 05:47:06;;;;;;;8.65;3.30;;;;;;;;;;5046594;28;20040;-85
2022/08/20 05:49:32;;;;;;;10.60;3.40;;;;;;;;;;5051971;28;20119;-86
2022/08/20 05:51:58;;;;;;;6.03;3.03;;;;;;;;;;5044941;28;20044;-86
2022/08/20 05:54:23;;;;;;;7.47;3.20;;;;;;;;;;5051635;28;20357;-86
2022/08/20 05:56:49;;;;;;;8.52;3.35;;;;;;;;;;5050217;28;20040;-86
2022/08/20 05:59:16;;;;;;;6.85;3.35;;;;;;;;;;5054076;28;20037;-86
2022/08/20 06:01:42;;;;;;;14.40;4.30;;;;;;;;;;5050531;28;20063;-86
2022/08/20 06:04:25;;;;;;;11.40;4.40;;;;;;;;;;5043465;28;20029;-86
2022/08/20 06:07:05;;;;;;;14.02;4.35;;;;;;;;;;5048816;28;20490;-86
2022/08/20 06:09:31;;;;;;;17.83;4.75;;;;;;;;;;5050019;28;20406;-86
2022/08/20 06:11:58;;;;;;;13.18;4.28;;;;;;;;;;5049013;28;20040;-86
2022/08/20 06:14:24;;;;;;;10.60;4.00;;;;;;;;;;5049138;28;20103;-86
2022/08/20 06:16:50;;;;;;;14.45;4.13;;;;;;;;;;5048629;28;20033;-86
2022/08/20 06:19:15;;;;;;;11.05;3.80;;;;;;;;;;5046677;28;20035;-85
2022/08/20 06:21:40;;;;;;;13.27;4.05;;;;;;;;;;5048679;28;20049;-85
2022/08/20 06:24:06;;;;;;;13.18;4.07;;;;;;;;;;5047835;28;20045;-86
2022/08/20 06:26:33;;;;;;;16.17;4.47;;;;;;;;;;5039382;28;20237;-85
2022/08/20 06:29:03;;;;;;;12.35;4.57;;;;;;;;;;5028178;28;20576;-85
2022/08/20 06:31:28;;;;;;;11.90;3.72;;;;;;;;;;5046732;28;20033;-85
2022/08/20 06:33:54;;;;;;;11.10;4.35;;;;;;;;;;5047446;28;20037;-85
2022/08/20 06:36:20;;;;;;;15.20;5.43;;;;;;;;;;5048663;28;20045;-85
2022/08/20 06:38:46;;;;;;;17.40;4.78;;;;;;;;;;5045118;28;20455;-85
2022/08/20 06:41:11;;;;;;;13.60;4.38;;;;;;;;;;5045015;28;20541;-85
2022/08/20 06:43:36;;;;;;;15.05;4.00;;;;;;;;;;5047375;28;20013;-85
2022/08/20 06:46:02;;;;;;;13.52;4.15;;;;;;;;;;5048354;28;20090;-84
2022/08/20 06:48:27;;;;;;;11.65;4.13;;;;;;;;;;5030930;28;20343;-85
2022/08/20 06:50:53;;;;;;;15.88;4.45;;;;;;;;;;5043870;28;20037;-85
2022/08/20 06:53:19;;;;;;;13.52;4.95;;;;;;;;;;5048046;28;20033;-84
2022/08/20 06:55:51;;;;;;;14.23;4.68;;;;;;;;;;5046510;28;20026;-85
2022/08/20 06:58:17;;;;;;;14.55;4.68;;;;;;;;;;5036361;28;20013;-85
2022/08/20 07:00:44;;;;;;;9.23;4.15;;;;;;;;;;5048569;28;20036;-84
2022/08/20 07:03:09;;;;;;;10.75;4.30;;;;;;;;;;5039329;28;20037;-85
2022/08/20 07:06:06;;;;;;;13.57;4.20;;;;;;;;;;5047741;28;20044;-85
2022/08/20 07:08:32;;;;;;;19.42;5.25;;;;;;;;;;5050270;28;20032;-84
2022/08/20 07:11:06;;;;;;;16.88;4.90;;;;;;;;;;5038132;28;20515;-84
2022/08/20 07:13:32;;;;;;;31.80;18.58;;;;;;;;;;5051687;28;20021;-84
2022/08/20 07:15:57;;;;;;;9.35;4.20;;;;;;;;;;5048461;28;20056;-84
2022/08/20 07:18:23;;;;;;;14.77;4.20;;;;;;;;;;5046443;28;20068;-82
2022/08/20 07:20:49;;;;;;;18.88;4.43;;;;;;;;;;5042861;28;20036;-83
2022/08/20 07:23:14;;;;;;;9.77;4.60;;;;;;;;;;5036866;28;20037;-83
2022/08/20 07:25:42;;;;;;;11.27;3.97;;;;;;;;;;5046009;28;20025;-83
2022/08/20 07:28:15;;;;;;;11.82;4.55;;;;;;;;;;5045440;28;20071;-83
2022/08/20 07:33:27;;;;;;;19.27;5.28;;;;;;;;;;5040786;28;20035;-83
2022/08/20 07:35:53;;;;;;;13.90;3.90;;;;;;;;;;5043894;28;20110;-83
2022/08/20 07:38:24;;;;;;;13.90;4.45;;;;;;;;;;5041783;28;20041;-83
2022/08/20 07:40:55;;;;;;;10.10;3.95;;;;;;;;;;5041923;28;20557;-84
2022/08/20 07:43:22;;;;;;;11.18;4.13;;;;;;;;;;5044524;28;20048;-82
2022/08/20 07:45:49;;;;;;;11.18;4.35;;;;;;;;;;5046825;28;20105;-83
2022/08/20 07:48:16;;;;;;;14.15;4.57;;;;;;;;;;5053227;28;20033;-82
2022/08/20 07:50:42;;;;;;;14.30;4.13;;;;;;;;;;5060359;28;20044;-83
2022/08/20 07:53:08;;;;;;;10.95;4.38;;;;;;;;;;5063593;28;20032;-83
2022/08/20 07:55:33;;;;;;;7.78;4.22;;;;;;;;;;5044239;28;20036;-83
2022/08/20 07:58:06;;;;;;;11.82;4.15;;;;;;;;;;5040051;28;20033;-83
2022/08/20 08:00:32;;;;;;;11.82;4.22;;;;;;;;;;5039483;28;20048;-83
2022/08/20 08:02:58;;;;;;;12.60;3.88;;;;;;;;;;5041018;28;20048;-83
2022/08/20 08:05:24;;;;;;;10.35;3.97;;;;;;;;;;5039630;28;20037;-86
2022/08/20 08:07:54;;;;;;;12.20;4.15;;;;;;;;;;5038135;28;20044;-83
2022/08/20 08:10:22;;;;;;;13.00;3.63;;;;;;;;;;5039738;28;20158;-84
2022/08/20 08:12:51;;;;;;;17.20;4.07;;;;;;;;;;5041784;28;20147;-83
2022/08/20 08:15:27;;;;;;;8.88;4.00;;;;;;;;;;5037071;28;20068;-82
2022/08/20 08:17:57;;;;;;;12.65;3.85;;;;;;;;;;5043338;28;20518;-83
2022/08/20 08:20:22;;;;;;;11.90;4.10;;;;;;;;;;5044489;28;20033;-83
2022/08/20 08:22:48;;;;;;;9.05;3.92;;;;;;;;;;5045795;28;20036;-84
2022/08/20 08:25:15;;;;;;;7.88;3.95;;;;;;;;;;5043505;28;20017;-85
2022/08/20 08:27:41;;;;;;;10.73;4.30;;;;;;;;;;5044827;28;20407;-84
2022/08/20 08:30:08;;;;;;;12.68;4.00;;;;;;;;;;5045433;28;20083;-84
2022/08/20 08:32:35;;;;;;;10.60;4.00;;;;;;;;;;5047621;28;20499;-84
2022/08/20 08:35:07;;;;;;;18.45;4.13;;;;;;;;;;5044052;28;20058;-84
2022/08/20 08:37:33;;;;;;;8.77;3.58;;;;;;;;;;5044018;28;20059;-84
2022/08/20 08:40:00;;;;;;;9.73;3.50;;;;;;;;;;5044014;28;20626;-85
2022/08/20 08:42:34;;;;;;;8.02;3.53;;;;;;;;;;5047507;28;20033;-84
2022/08/20 08:45:00;;;;;;;7.20;2.85;;;;;;;;;;5045478;28;20057;-85
2022/08/20 08:47:29;;;;;;;7.28;2.80;;;;;;;;;;5049200;28;20510;-85
2022/08/20 08:49:56;;;;;;;6.20;3.70;;;;;;;;;;5047306;28;20048;-85
2022/08/20 08:52:27;;;;;;;12.80;3.72;;;;;;;;;;5045167;28;20109;-84
2022/08/20 08:54:56;;;;;;;6.85;3.40;;;;;;;;;;5060422;28;20048;-84
2022/08/20 08:57:23;;;;;;;8.52;3.38;;;;;;;;;;5046353;28;20414;-84
2022/08/20 08:59:58;;;;;;;8.98;3.53;;;;;;;;;;5045092;28;20139;-84
2022/08/20 09:02:25;;;;;;;9.32;3.30;;;;;;;;;;5047291;28;20083;-85
2022/08/20 09:04:55;;;;;;;14.90;3.25;;;;;;;;;;5048106;28;20028;-84
2022/08/20 09:07:26;;;;;;;15.07;3.60;;;;;;;;;;5049324;28;20669;-85
2022/08/20 09:10:04;;;;;;;7.60;3.20;;;;;;;;;;5041591;28;20079;-84
2022/08/20 09:12:30;;;;;;;11.73;3.22;;;;;;;;;;5041744;28;20041;-84
2022/08/20 09:14:56;;;;;;;9.60;2.92;;;;;;;;;;5045971;28;20043;-86
2022/08/20 09:17:22;;;;;;;6.65;3.22;;;;;;;;;;5049616;28;20041;-86
2022/08/20 09:19:53;;;;;;;4.55;2.53;;;;;;;;;;5049248;28;20063;-87
2022/08/20 09:25:09;;;;;;;8.10;2.35;;;;;;;;;;5181649;23;20161;-86
2022/08/20 09:27:34;;;;;;;7.03;2.30;;;;;;;;;;5002689;28;20078;-85
2022/08/20 09:29:59;;;;;;;7.22;2.00;;;;;;;;;;5001357;28;20085;-86
2022/08/20 09:32:25;;;;;;;4.30;2.08;;;;;;;;;;4989324;28;20048;-86
2022/08/20 09:34:55;;;;;;;6.50;2.33;;;;;;;;;;4989271;28;20030;-86
2022/08/20 09:37:22;;;;;;;12.25;2.88;;;;;;;;;;5002894;28;20030;-87
2022/08/20 09:39:48;;;;;;;7.53;2.35;;;;;;;;;;4986393;28;20042;-84
2022/08/20 09:42:17;;;;;;;5.95;2.10;;;;;;;;;;4987392;28;20060;-86
2022/08/20 09:44:43;;;;;;;8.07;2.20;;;;;;;;;;5002581;28;20171;-85
2022/08/20 09:47:09;;;;;;;7.43;2.20;;;;;;;;;;5006647;28;20065;-84
2022/08/20 09:49:36;;;;;;;6.85;1.75;;;;;;;;;;5005897;28;20418;-83
2022/08/20 09:52:03;;;;;;;4.53;1.65;;;;;;;;;;5005277;28;20050;-85
2022/08/20 09:54:29;;;;;;;6.35;1.92;;;;;;;;;;4988522;28;20050;-83
2022/08/20 09:56:57;;;;;;;7.90;1.98;;;;;;;;;;5001592;28;20033;-83
2022/08/20 09:59:23;;;;;;;9.13;2.17;;;;;;;;;;4998536;28;20045;-83
2022/08/20 10:01:49;;;;;;;10.82;1.98;;;;;;;;;;4983960;28;20033;-84
2022/08/20 10:04:14;;;;;;;5.97;1.83;;;;;;;;;;5004014;28;20029;-84
2022/08/20 10:06:40;;;;;;;4.82;1.60;;;;;;;;;;5004123;28;20042;-85
2022/08/20 10:09:06;;;;;;;5.78;1.75;;;;;;;;;;4999970;28;20045;-84
2022/08/20 10:11:32;;;;;;;7.00;2.20;;;;;;;;;;5004491;28;20033;-84
2022/08/20 10:13:57;;;;;;;6.05;2.33;;;;;;;;;;4997540;28;20045;-84
2022/08/20 10:16:23;;;;;;;9.63;2.75;;;;;;;;;;4993630;28;20033;-85
2022/08/20 10:18:49;;;;;;;3.55;1.90;;;;;;;;;;5007148;28;20466;-85
2022/08/20 10:21:20;;;;;;;6.25;2.17;;;;;;;;;;4989833;28;20042;-85
2022/08/20 10:23:46;;;;;;;6.57;2.10;;;;;;;;;;4987840;28;20128;-83
2022/08/20 10:26:12;;;;;;;4.68;1.90;;;;;;;;;;4982503;28;20072;-86
2022/08/20 10:28:38;;;;;;;3.65;1.48;;;;;;;;;;4983186;28;20042;-85
2022/08/20 10:31:09;;;;;;;4.68;2.15;;;;;;;;;;4987582;28;20026;-84
2022/08/20 10:33:35;;;;;;;5.20;2.55;;;;;;;;;;4989881;28;20056;-84
2022/08/20 10:36:09;;;;;;;6.97;2.25;;;;;;;;;;5002651;28;20056;-83
2022/08/20 10:38:34;;;;;;;7.93;2.15;;;;;;;;;;5005850;28;20045;-83
2022/08/20 10:41:00;;;;;;;3.50;1.90;;;;;;;;;;4979501;28;20042;-83
2022/08/20 10:43:28;;;;;;;10.40;2.38;;;;;;;;;;4997991;28;20104;-83
2022/08/20 10:45:53;;;;;;;5.13;1.83;;;;;;;;;;4986673;28;20073;-83
2022/08/20 10:48:20;;;;;;;5.72;2.13;;;;;;;;;;4998799;28;20463;-83
2022/08/20 10:50:45;;;;;;;6.20;1.92;;;;;;;;;;5003315;28;20072;-83
2022/08/20 10:53:11;;;;;;;6.35;1.98;;;;;;;;;;5000910;28;20045;-84
2022/08/20 10:55:38;;;;;;;5.28;1.95;;;;;;;;;;4998103;28;20034;-83
2022/08/20 10:58:07;;;;;;;5.75;1.95;;;;;;;;;;5002051;28;20049;-83
2022/08/20 11:00:32;;;;;;;4.95;2.00;;;;;;;;;;4983342;28;20038;-84
2022/08/20 11:02:58;;;;;;;6.32;1.63;;;;;;;;;;4996007;28;20076;-84
2022/08/20 11:05:23;;;;;;;9.35;2.03;;;;;;;;;;5006855;28;20436;-83
2022/08/20 11:07:49;;;;;;;25.60;3.25;;;;;;;;;;5000146;28;20037;-84
2022/08/20 11:10:14;;;;;;;4.55;1.88;;;;;;;;;;5001305;28;20108;-84
2022/08/20 11:12:40;;;;;;;5.68;1.90;;;;;;;;;;4998271;28;20570;-84
2022/08/20 11:15:06;;;;;;;3.45;1.83;;;;;;;;;;4989212;28;20463;-84
2022/08/20 11:17:35;;;;;;;6.05;1.77;;;;;;;;;;4984250;28;20041;-84
2022/08/20 11:20:03;;;;;;;5.10;1.90;;;;;;;;;;4994890;28;20110;-84
2022/08/20 11:22:28;;;;;;;10.27;1.90;;;;;;;;;;5004852;28;20044;-84
2022/08/20 11:24:54;;;;;;;6.18;1.90;;;;;;;;;;5012380;28;20037;-86
2022/08/20 11:27:26;;;;;;;4.70;1.60;;;;;;;;;;5013420;28;20076;-84
2022/08/20 11:29:52;;;;;;;3.50;1.30;;;;;;;;;;4984014;28;20574;-86
2022/08/20 11:32:18;;;;;;;6.97;1.90;;;;;;;;;;4982584;28;20056;-85
2022/08/20 11:34:43;;;;;;;4.82;1.73;;;;;;;;;;4987409;28;20056;-85
2022/08/20 11:37:10;;;;;;;3.78;1.55;;;;;;;;;;4982801;28;20026;-85
2022/08/20 11:39:36;;;;;;;6.85;1.90;;;;;;;;;;4984051;28;20103;-85
2022/08/20 11:42:01;;;;;;;2.83;1.48;;;;;;;;;;5004097;28;20920;-85
2022/08/20 11:44:27;;;;;;;6.43;1.52;;;;;;;;;;4980969;28;20035;-86
2022/08/20 11:46:52;;;;;;;4.97;1.60;;;;;;;;;;4981931;28;20041;-86
2022/08/20 11:49:18;;;;;;;2.95;1.27;;;;;;;;;;4984015;28;20030;-85
2022/08/20 11:51:43;;;;;;;5.63;1.67;;;;;;;;;;4996900;28;20046;-84
2022/08/20 11:54:09;;;;;;;4.13;1.42;;;;;;;;;;5003023;28;20044;-85
2022/08/20 11:56:34;;;;;;;4.80;1.52;;;;;;;;;;5005197;28;20041;-85
2022/08/20 11:58:59;;;;;;;4.53;1.45;;;;;;;;;;5004630;28;20034;-84
2022/08/20 12:01:25;;;;;;;3.22;1.27;;;;;;;;;;5012461;28;20026;-84
2022/08/20 12:03:50;;;;;;;3.03;1.40;;;;;;;;;;5011521;28;20061;-84
2022/08/20 12:06:16;;;;;;;4.95;1.35;;;;;;;;;;5007860;28;20142;-85
2022/08/20 12:08:41;;;;;;;4.85;1.48;;;;;;;;;;4990920;28;20121;-84
2022/08/20 12:11:07;;;;;;;2.45;1.30;;;;;;;;;;5011744;28;20465;-85
2022/08/20 12:13:35;;;;;;;1.90;1.05;;;;;;;;;;5011916;28;20030;-84
2022/08/20 12:16:01;;;;;;;3.78;1.33;;;;;;;;;;5010296;28;20045;-83
2022/08/20 12:18:27;;;;;;;4.38;1.65;;;;;;;;;;4992605;28;20038;-84
2022/08/20 12:20:52;;;;;;;2.85;1.30;;;;;;;;;;5007423;28;20446;-84
2022/08/20 12:23:18;;;;;;;4.65;1.23;;;;;;;;;;5016317;28;20046;-84
2022/08/20 12:25:43;;;;;;;2.15;1.20;;;;;;;;;;5023169;28;20042;-85
2022/08/20 12:28:12;;;;;;;5.20;1.52;;;;;;;;;;5020604;28;20113;-84
2022/08/20 12:30:37;;;;;;;5.75;1.50;;;;;;;;;;4995026;28;20054;-86
2022/08/20 12:33:02;;;;;;;4.50;1.60;;;;;;;;;;4991624;28;20095;-84
2022/08/20 12:35:28;;;;;;;4.53;1.10;;;;;;;;;;5004893;28;20049;-85
2022/08/20 12:37:53;;;;;;;1.88;1.25;;;;;;;;;;5004435;28;20105;-85
2022/08/20 12:40:23;;;;;;;5.18;1.48;;;;;;;;;;5003497;28;20034;-84
2022/08/20 12:42:48;;;;;;;2.25;1.20;;;;;;;;;;5001257;28;20081;-84
2022/08/20 12:45:15;;;;;;;5.70;1.40;;;;;;;;;;5011082;28;20038;-85
2022/08/20 12:47:42;;;;;;;3.13;1.00;;;;;;;;;;5015220;28;20034;-85
2022/08/20 12:50:09;;;;;;;2.90;1.20;;;;;;;;;;5005694;28;20042;-85
2022/08/20 12:52:35;;;;;;;2.15;0.93;;;;;;;;;;5003962;28;20419;-83
2022/08/20 12:55:01;;;;;;;5.15;1.50;;;;;;;;;;5006165;28;20534;-85
2022/08/20 12:57:33;;;;;;;5.70;1.27;;;;;;;;;;4985179;28;20050;-84
2022/08/20 13:00:13;;;;;;;2.60;1.45;;;;;;;;;;4967008;28;20042;-86
2022/08/20 13:02:40;;;;;;;6.05;1.50;;;;;;;;;;4967659;28;20070;-84
2022/08/20 13:05:07;;;;;;;4.78;1.42;;;;;;;;;;4994663;28;20132;-85
2022/08/20 13:07:33;;;;;;;7.03;1.45;;;;;;;;;;5024598;28;20121;-84
2022/08/20 13:09:59;;;;;;;2.50;1.17;;;;;;;;;;5022957;28;20124;-85
2022/08/20 13:12:25;;;;;;;4.82;1.40;;;;;;;;;;5007909;28;20116;-84
2022/08/20 13:14:50;;;;;;;2.10;1.08;;;;;;;;;;5029292;28;20161;-84
2022/08/20 13:17:17;;;;;;;5.32;1.23;;;;;;;;;;5027003;28;20037;-85
2022/08/20 13:19:44;;;;;;;1.30;1.13;;;;;;;;;;5035443;28;20021;-84
2022/08/20 13:22:10;;;;;;;3.03;1.40;;;;;;;;;;5025320;28;20033;-84
2022/08/20 13:24:36;;;;;;;4.85;1.45;;;;;;;;;;5005867;28;20540;-85
2022/08/20 13:27:16;;;;;;;2.70;1.13;;;;;;;;;;5005914;28;20417;-85
2022/08/20 13:29:47;;;;;;;5.22;1.48;;;;;;;;;;5003711;28;20041;-85
2022/08/20 13:32:13;;;;;;;3.25;1.50;;;;;;;;;;5027289;28;20033;-84
2022/08/20 13:34:38;;;;;;;10.18;1.42;;;;;;;;;;5013793;28;20032;-85
2022/08/20 13:37:14;;;;;;;3.78;1.38;;;;;;;;;;5049092;28;20437;-84
2022/08/20 13:39:40;;;;;;;3.15;1.40;;;;;;;;;;5015544;28;20046;-87
2022/08/20 13:42:06;;;;;;;5.65;1.58;;;;;;;;;;5010314;28;20744;-85
2022/08/20 13:44:32;;;;;;;3.38;1.50;;;;;;;;;;5000500;28;20060;-84
2022/08/20 13:46:58;;;;;;;4.53;1.33;;;;;;;;;;5020113;28;20120;-84
2022/08/20 13:49:23;;;;;;;6.97;1.83;;;;;;;;;;4999859;28;20442;-84
2022/08/20 13:51:48;;;;;;;2.45;1.15;;;;;;;;;;5024359;28;20037;-85
2022/08/20 13:54:14;;;;;;;3.25;1.48;;;;;;;;;;5004349;28;20079;-85
2022/08/20 13:56:39;;;;;;;4.82;1.65;;;;;;;;;;5008175;28;20103;-85
2022/08/20 13:59:04;;;;;;;3.08;1.48;;;;;;;;;;5015349;28;20076;-86
2022/08/20 14:01:30;;;;;;;4.03;1.17;;;;;;;;;;5026202;28;20079;-85
2022/08/20 14:03:55;;;;;;;4.15;1.70;;;;;;;;;;5026966;28;20481;-83
2022/08/20 14:06:23;;;;;;;2.47;1.40;;;;;;;;;;5029063;28;20469;-85
2022/08/20 14:08:57;;;;;;;3.75;1.15;;;;;;;;;;5024569;28;20076;-85
2022/08/20 14:11:23;;;;;;;3.08;1.40;;;;;;;;;;5028261;28;20774;-85
2022/08/20 14:13:48;;;;;;;5.47;1.55;;;;;;;;;;5023417;28;20094;-83
2022/08/20 14:16:14;;;;;;;4.22;1.27;;;;;;;;;;5022089;28;20049;-84
2022/08/20 14:18:39;;;;;;;6.03;1.33;;;;;;;;;;5002923;28;20072;-85
2022/08/20 14:21:05;;;;;;;4.18;1.50;;;;;;;;;;5006330;28;20069;-83
2022/08/20 14:23:30;;;;;;;7.10;1.33;;;;;;;;;;5005866;28;20034;-83
2022/08/20 14:25:55;;;;;;;3.97;1.40;;;;;;;;;;5018424;28;20053;-84
2022/08/20 14:28:25;;;;;;;2.17;1.30;;;;;;;;;;5005224;28;20056;-84
2022/08/20 14:30:50;;;;;;;3.15;1.40;;;;;;;;;;5007677;28;20042;-82
2022/08/20 14:33:16;;;;;;;3.35;1.67;;;;;;;;;;5028205;28;20426;-84
2022/08/20 14:35:42;;;;;;;4.65;1.42;;;;;;;;;;5025039;28;20183;-85
2022/08/20 14:38:07;;;;;;;4.00;1.65;;;;;;;;;;5024879;28;20045;-84
2022/08/20 14:40:33;;;;;;;2.17;1.20;;;;;;;;;;5024701;28;20020;-85
2022/08/20 14:42:59;;;;;;;5.35;1.63;;;;;;;;;;5023097;28;20057;-84
2022/08/20 14:45:24;;;;;;;3.58;1.20;;;;;;;;;;5010345;28;20040;-84
2022/08/20 14:47:56;;;;;;;4.53;1.20;;;;;;;;;;5025409;28;20153;-85
2022/08/20 14:50:28;;;;;;;4.50;1.55;;;;;;;;;;5009571;28;20030;-84